sensor_id;sensor_type;location;lat;lon;timestamp;P1;durP1;ratioP1;P2;durP2;ratioP2
70780;SDS011;59514;48.810;2.134;2022-11-02T00:00:44;8.52;;;2.58;;
70780;SDS011;59514;48.810;2.134;2022-11-02T00:03:10;7.95;;;1.88;;
70780;SDS011;59514;48.810;2.134;2022-11-02T00:05:36;7.22;;;2.28;;
70780;SDS011;59514;48.810;2.134;2022-11-02T00:08:01;8.23;;;2.22;;
70780;SDS011;59514;48.810;2.134;2022-11-02T00:10:27;7.78;;;1.92;;
70780;SDS011;59514;48.810;2.134;2022-11-02T00:12:54;5.75;;;1.90;;
70780;SDS011;59514;48.810;2.134;2022-11-02T00:15:19;11.63;;;2.72;;
70780;SDS011;59514;48.810;2.134;2022-11-02T00:17:46;8.70;;;2.22;;
70780;SDS011;59514;48.810;2.134;2022-11-02T00:20:13;7.35;;;2.25;;
70780;SDS011;59514;48.810;2.134;2022-11-02T00:22:42;6.05;;;1.70;;
70780;SDS011;59514;48.810;2.134;2022-11-02T00:25:10;6.38;;;1.92;;
70780;SDS011;59514;48.810;2.134;2022-11-02T00:27:39;5.45;;;1.80;;
70780;SDS011;59514;48.810;2.134;2022-11-02T00:30:06;9.35;;;2.17;;
70780;SDS011;59514;48.810;2.134;2022-11-02T00:32:32;7.65;;;1.80;;
70780;SDS011;59514;48.810;2.134;2022-11-02T00:34:58;8.30;;;2.10;;
70780;SDS011;59514;48.810;2.134;2022-11-02T00:37:23;7.60;;;2.38;;
70780;SDS011;59514;48.810;2.134;2022-11-02T00:39:48;8.15;;;2.28;;
70780;SDS011;59514;48.810;2.134;2022-11-02T00:42:14;5.18;;;1.60;;
70780;SDS011;59514;48.810;2.134;2022-11-02T00:44:40;9.25;;;2.10;;
70780;SDS011;59514;48.810;2.134;2022-11-02T00:47:05;7.13;;;1.77;;
70780;SDS011;59514;48.810;2.134;2022-11-02T00:49:31;8.77;;;2.70;;
70780;SDS011;59514;48.810;2.134;2022-11-02T00:51:56;8.82;;;2.17;;
70780;SDS011;59514;48.810;2.134;2022-11-02T00:54:22;7.90;;;2.33;;
70780;SDS011;59514;48.810;2.134;2022-11-02T00:56:48;8.73;;;2.10;;
70780;SDS011;59514;48.810;2.134;2022-11-02T00:59:13;11.52;;;2.67;;
70780;SDS011;59514;48.810;2.134;2022-11-02T01:01:39;8.80;;;1.90;;
70780;SDS011;59514;48.810;2.134;2022-11-02T01:04:05;10.10;;;2.28;;
70780;SDS011;59514;48.810;2.134;2022-11-02T01:06:30;6.82;;;2.28;;
70780;SDS011;59514;48.810;2.134;2022-11-02T01:08:55;10.65;;;2.35;;
70780;SDS011;59514;48.810;2.134;2022-11-02T01:11:21;10.52;;;2.85;;
70780;SDS011;59514;48.810;2.134;2022-11-02T01:13:51;5.82;;;2.10;;
70780;SDS011;59514;48.810;2.134;2022-11-02T01:16:16;10.85;;;2.78;;
70780;SDS011;59514;48.810;2.134;2022-11-02T01:18:42;11.98;;;2.50;;
70780;SDS011;59514;48.810;2.134;2022-11-02T01:21:08;7.75;;;2.53;;
70780;SDS011;59514;48.810;2.134;2022-11-02T01:23:33;7.68;;;2.20;;
70780;SDS011;59514;48.810;2.134;2022-11-02T01:26:04;11.52;;;2.20;;
70780;SDS011;59514;48.810;2.134;2022-11-02T01:28:31;10.45;;;3.30;;
70780;SDS011;59514;48.810;2.134;2022-11-02T01:30:56;9.60;;;2.35;;
70780;SDS011;59514;48.810;2.134;2022-11-02T01:33:23;12.10;;;2.53;;
70780;SDS011;59514;48.810;2.134;2022-11-02T01:35:49;6.32;;;2.22;;
70780;SDS011;59514;48.810;2.134;2022-11-02T01:38:14;7.75;;;2.03;;
70780;SDS011;59514;48.810;2.134;2022-11-02T01:40:39;10.35;;;2.70;;
70780;SDS011;59514;48.810;2.134;2022-11-02T01:43:17;7.57;;;2.70;;
70780;SDS011;59514;48.810;2.134;2022-11-02T01:45:51;8.25;;;2.53;;
70780;SDS011;59514;48.810;2.134;2022-11-02T01:48:20;10.43;;;2.47;;
70780;SDS011;59514;48.810;2.134;2022-11-02T01:50:52;9.02;;;2.30;;
70780;SDS011;59514;48.810;2.134;2022-11-02T01:53:18;10.02;;;2.30;;
70780;SDS011;59514;48.810;2.134;2022-11-02T01:55:43;12.60;;;2.42;;
70780;SDS011;59514;48.810;2.134;2022-11-02T01:58:09;11.25;;;2.17;;
70780;SDS011;59514;48.810;2.134;2022-11-02T02:00:36;8.63;;;3.13;;
70780;SDS011;59514;48.810;2.134;2022-11-02T02:03:10;10.63;;;3.65;;
70780;SDS011;59514;48.810;2.134;2022-11-02T02:05:41;12.35;;;2.78;;
70780;SDS011;59514;48.810;2.134;2022-11-02T02:08:09;8.07;;;2.50;;
70780;SDS011;59514;48.810;2.134;2022-11-02T02:10:37;7.88;;;2.45;;
70780;SDS011;59514;48.810;2.134;2022-11-02T02:13:03;9.35;;;2.58;;
70780;SDS011;59514;48.810;2.134;2022-11-02T02:15:37;12.90;;;2.53;;
70780;SDS011;59514;48.810;2.134;2022-11-02T02:18:32;10.60;;;2.58;;
70780;SDS011;59514;48.810;2.134;2022-11-02T02:29:15;14.13;;;3.15;;
70780;SDS011;59514;48.810;2.134;2022-11-02T02:31:48;12.27;;;2.85;;
70780;SDS011;59514;48.810;2.134;2022-11-02T02:34:16;11.25;;;2.75;;
70780;SDS011;59514;48.810;2.134;2022-11-02T02:36:46;14.93;;;3.25;;
70780;SDS011;59514;48.810;2.134;2022-11-02T02:39:20;11.60;;;2.80;;
70780;SDS011;59514;48.810;2.134;2022-11-02T02:41:57;10.93;;;2.80;;
70780;SDS011;59514;48.810;2.134;2022-11-02T02:44:30;16.85;;;3.35;;
70780;SDS011;59514;48.810;2.134;2022-11-02T02:47:01;11.25;;;2.72;;
70780;SDS011;59514;48.810;2.134;2022-11-02T02:49:38;13.18;;;3.13;;
70780;SDS011;59514;48.810;2.134;2022-11-02T02:52:08;12.57;;;2.53;;
70780;SDS011;59514;48.810;2.134;2022-11-02T02:54:39;11.95;;;2.70;;
70780;SDS011;59514;48.810;2.134;2022-11-02T02:57:10;11.57;;;3.17;;
70780;SDS011;59514;48.810;2.134;2022-11-02T02:59:42;12.50;;;2.78;;
70780;SDS011;59514;48.810;2.134;2022-11-02T03:02:31;13.10;;;3.22;;
70780;SDS011;59514;48.810;2.134;2022-11-02T03:04:57;12.52;;;2.70;;
70780;SDS011;59514;48.810;2.134;2022-11-02T03:07:23;11.45;;;2.50;;
70780;SDS011;59514;48.810;2.134;2022-11-02T03:15:08;14.68;;;2.97;;
70780;SDS011;59514;48.810;2.134;2022-11-02T03:23:05;13.10;;;2.88;;
70780;SDS011;59514;48.810;2.134;2022-11-02T03:25:36;13.47;;;3.07;;
70780;SDS011;59514;48.810;2.134;2022-11-02T03:33:21;10.85;;;2.53;;
70780;SDS011;59514;48.810;2.134;2022-11-02T03:36:05;11.88;;;3.13;;
70780;SDS011;59514;48.810;2.134;2022-11-02T03:41:11;12.40;;;2.53;;
70780;SDS011;59514;48.810;2.134;2022-11-02T03:43:39;13.70;;;3.58;;
70780;SDS011;59514;48.810;2.134;2022-11-02T03:46:06;9.45;;;2.85;;
70780;SDS011;59514;48.810;2.134;2022-11-02T03:48:34;13.77;;;3.25;;
70780;SDS011;59514;48.810;2.134;2022-11-02T03:51:06;11.82;;;2.72;;
70780;SDS011;59514;48.810;2.134;2022-11-02T03:53:39;15.52;;;3.40;;
70780;SDS011;59514;48.810;2.134;2022-11-02T03:56:18;11.38;;;3.13;;
70780;SDS011;59514;48.810;2.134;2022-11-02T03:58:49;13.57;;;3.17;;
70780;SDS011;59514;48.810;2.134;2022-11-02T04:01:15;15.88;;;2.85;;
70780;SDS011;59514;48.810;2.134;2022-11-02T04:03:44;12.02;;;3.00;;
70780;SDS011;59514;48.810;2.134;2022-11-02T04:06:10;12.65;;;3.10;;
70780;SDS011;59514;48.810;2.134;2022-11-02T04:08:38;10.40;;;3.13;;
70780;SDS011;59514;48.810;2.134;2022-11-02T04:11:06;10.02;;;2.97;;
70780;SDS011;59514;48.810;2.134;2022-11-02T04:13:50;14.20;;;3.20;;
70780;SDS011;59514;48.810;2.134;2022-11-02T04:16:34;13.13;;;3.50;;
70780;SDS011;59514;48.810;2.134;2022-11-02T04:19:00;12.27;;;3.05;;
70780;SDS011;59514;48.810;2.134;2022-11-02T04:21:44;13.00;;;3.25;;
70780;SDS011;59514;48.810;2.134;2022-11-02T04:24:30;12.30;;;3.47;;
70780;SDS011;59514;48.810;2.134;2022-11-02T04:27:14;14.32;;;3.42;;
70780;SDS011;59514;48.810;2.134;2022-11-02T04:29:40;15.18;;;3.90;;
70780;SDS011;59514;48.810;2.134;2022-11-02T04:32:05;15.55;;;3.90;;
70780;SDS011;59514;48.810;2.134;2022-11-02T04:34:30;16.58;;;3.00;;
70780;SDS011;59514;48.810;2.134;2022-11-02T04:36:56;14.60;;;3.92;;
70780;SDS011;59514;48.810;2.134;2022-11-02T04:39:21;16.63;;;3.22;;
70780;SDS011;59514;48.810;2.134;2022-11-02T04:41:46;14.60;;;3.53;;
70780;SDS011;59514;48.810;2.134;2022-11-02T04:44:12;17.05;;;3.92;;
70780;SDS011;59514;48.810;2.134;2022-11-02T04:46:39;15.65;;;3.65;;
70780;SDS011;59514;48.810;2.134;2022-11-02T04:49:05;15.02;;;3.90;;
70780;SDS011;59514;48.810;2.134;2022-11-02T04:51:31;15.77;;;3.30;;
70780;SDS011;59514;48.810;2.134;2022-11-02T04:53:57;18.67;;;4.00;;
70780;SDS011;59514;48.810;2.134;2022-11-02T04:56:23;15.82;;;3.17;;
70780;SDS011;59514;48.810;2.134;2022-11-02T04:58:50;14.15;;;3.53;;
70780;SDS011;59514;48.810;2.134;2022-11-02T05:01:17;13.98;;;3.42;;
70780;SDS011;59514;48.810;2.134;2022-11-02T05:03:45;19.08;;;3.92;;
70780;SDS011;59514;48.810;2.134;2022-11-02T05:06:12;14.95;;;4.15;;
70780;SDS011;59514;48.810;2.134;2022-11-02T05:08:38;11.70;;;3.55;;
70780;SDS011;59514;48.810;2.134;2022-11-02T05:11:04;14.23;;;3.60;;
70780;SDS011;59514;48.810;2.134;2022-11-02T05:13:29;12.52;;;3.47;;
70780;SDS011;59514;48.810;2.134;2022-11-02T05:15:55;19.27;;;4.65;;
70780;SDS011;59514;48.810;2.134;2022-11-02T05:18:21;12.88;;;3.70;;
70780;SDS011;59514;48.810;2.134;2022-11-02T05:20:51;13.77;;;3.25;;
70780;SDS011;59514;48.810;2.134;2022-11-02T05:23:17;20.05;;;3.85;;
70780;SDS011;59514;48.810;2.134;2022-11-02T05:25:51;15.45;;;3.10;;
70780;SDS011;59514;48.810;2.134;2022-11-02T05:28:20;15.23;;;3.55;;
70780;SDS011;59514;48.810;2.134;2022-11-02T05:30:46;16.85;;;3.88;;
70780;SDS011;59514;48.810;2.134;2022-11-02T05:33:11;22.23;;;4.32;;
70780;SDS011;59514;48.810;2.134;2022-11-02T05:35:36;19.75;;;3.83;;
70780;SDS011;59514;48.810;2.134;2022-11-02T05:38:02;17.52;;;3.78;;
70780;SDS011;59514;48.810;2.134;2022-11-02T05:40:27;15.52;;;4.15;;
70780;SDS011;59514;48.810;2.134;2022-11-02T05:42:57;14.60;;;3.75;;
70780;SDS011;59514;48.810;2.134;2022-11-02T05:45:24;16.30;;;4.10;;
70780;SDS011;59514;48.810;2.134;2022-11-02T05:47:49;16.88;;;3.75;;
70780;SDS011;59514;48.810;2.134;2022-11-02T05:50:14;18.13;;;4.53;;
70780;SDS011;59514;48.810;2.134;2022-11-02T05:52:40;15.70;;;3.55;;
70780;SDS011;59514;48.810;2.134;2022-11-02T05:55:05;14.45;;;3.85;;
70780;SDS011;59514;48.810;2.134;2022-11-02T05:57:31;14.55;;;3.65;;
70780;SDS011;59514;48.810;2.134;2022-11-02T05:59:56;17.05;;;4.03;;
70780;SDS011;59514;48.810;2.134;2022-11-02T06:02:21;16.45;;;4.07;;
70780;SDS011;59514;48.810;2.134;2022-11-02T06:04:47;15.38;;;3.55;;
70780;SDS011;59514;48.810;2.134;2022-11-02T06:07:12;17.05;;;3.53;;
70780;SDS011;59514;48.810;2.134;2022-11-02T06:09:37;15.52;;;4.03;;
70780;SDS011;59514;48.810;2.134;2022-11-02T06:12:03;20.23;;;3.63;;
70780;SDS011;59514;48.810;2.134;2022-11-02T06:14:28;17.05;;;4.25;;
70780;SDS011;59514;48.810;2.134;2022-11-02T06:16:53;17.85;;;3.50;;
70780;SDS011;59514;48.810;2.134;2022-11-02T06:19:19;15.25;;;3.67;;
70780;SDS011;59514;48.810;2.134;2022-11-02T06:21:44;16.02;;;4.25;;
70780;SDS011;59514;48.810;2.134;2022-11-02T06:24:09;17.95;;;4.80;;
70780;SDS011;59514;48.810;2.134;2022-11-02T06:26:34;18.80;;;3.97;;
70780;SDS011;59514;48.810;2.134;2022-11-02T06:29:00;16.75;;;3.78;;
70780;SDS011;59514;48.810;2.134;2022-11-02T06:31:25;15.95;;;4.60;;
70780;SDS011;59514;48.810;2.134;2022-11-02T06:33:51;17.30;;;4.47;;
70780;SDS011;59514;48.810;2.134;2022-11-02T06:36:16;18.67;;;4.18;;
70780;SDS011;59514;48.810;2.134;2022-11-02T06:38:41;19.08;;;4.00;;
70780;SDS011;59514;48.810;2.134;2022-11-02T06:41:06;23.63;;;4.45;;
70780;SDS011;59514;48.810;2.134;2022-11-02T06:43:32;15.05;;;3.78;;
70780;SDS011;59514;48.810;2.134;2022-11-02T06:45:58;14.10;;;4.50;;
70780;SDS011;59514;48.810;2.134;2022-11-02T06:48:24;13.98;;;4.05;;
70780;SDS011;59514;48.810;2.134;2022-11-02T06:50:51;19.00;;;4.65;;
70780;SDS011;59514;48.810;2.134;2022-11-02T06:53:17;12.55;;;3.55;;
70780;SDS011;59514;48.810;2.134;2022-11-02T06:55:42;16.30;;;4.00;;
70780;SDS011;59514;48.810;2.134;2022-11-02T06:58:08;14.88;;;3.28;;
70780;SDS011;59514;48.810;2.134;2022-11-02T07:00:33;17.00;;;3.78;;
70780;SDS011;59514;48.810;2.134;2022-11-02T07:03:02;16.77;;;4.95;;
70780;SDS011;59514;48.810;2.134;2022-11-02T07:05:29;13.75;;;3.80;;
70780;SDS011;59514;48.810;2.134;2022-11-02T07:07:55;13.10;;;3.92;;
70780;SDS011;59514;48.810;2.134;2022-11-02T07:10:21;16.40;;;3.47;;
70780;SDS011;59514;48.810;2.134;2022-11-02T07:12:50;15.82;;;4.50;;
70780;SDS011;59514;48.810;2.134;2022-11-02T07:15:15;13.13;;;3.42;;
70780;SDS011;59514;48.810;2.134;2022-11-02T07:17:41;16.75;;;3.97;;
70780;SDS011;59514;48.810;2.134;2022-11-02T07:20:06;20.75;;;4.40;;
70780;SDS011;59514;48.810;2.134;2022-11-02T07:22:34;18.92;;;4.45;;
70780;SDS011;59514;48.810;2.134;2022-11-02T07:25:00;18.77;;;4.47;;
70780;SDS011;59514;48.810;2.134;2022-11-02T07:27:25;20.75;;;4.10;;
70780;SDS011;59514;48.810;2.134;2022-11-02T07:29:50;18.02;;;4.22;;
70780;SDS011;59514;48.810;2.134;2022-11-02T07:32:16;16.67;;;4.05;;
70780;SDS011;59514;48.810;2.134;2022-11-02T07:34:41;15.07;;;3.70;;
70780;SDS011;59514;48.810;2.134;2022-11-02T07:37:06;15.00;;;3.88;;
70780;SDS011;59514;48.810;2.134;2022-11-02T07:39:32;21.25;;;4.95;;
70780;SDS011;59514;48.810;2.134;2022-11-02T07:41:57;22.63;;;4.35;;
70780;SDS011;59514;48.810;2.134;2022-11-02T07:44:22;16.10;;;4.30;;
70780;SDS011;59514;48.810;2.134;2022-11-02T07:46:48;24.17;;;5.30;;
70780;SDS011;59514;48.810;2.134;2022-11-02T07:49:13;17.50;;;3.97;;
70780;SDS011;59514;48.810;2.134;2022-11-02T07:51:38;14.32;;;4.60;;
70780;SDS011;59514;48.810;2.134;2022-11-02T07:54:04;17.98;;;4.43;;
70780;SDS011;59514;48.810;2.134;2022-11-02T07:56:29;17.55;;;4.20;;
70780;SDS011;59514;48.810;2.134;2022-11-02T07:58:54;20.38;;;4.57;;
70780;SDS011;59514;48.810;2.134;2022-11-02T08:01:20;18.33;;;4.43;;
70780;SDS011;59514;48.810;2.134;2022-11-02T08:03:45;15.82;;;4.18;;
70780;SDS011;59514;48.810;2.134;2022-11-02T08:06:11;14.52;;;4.72;;
70780;SDS011;59514;48.810;2.134;2022-11-02T08:08:37;18.63;;;4.30;;
70780;SDS011;59514;48.810;2.134;2022-11-02T08:11:04;13.57;;;4.20;;
70780;SDS011;59514;48.810;2.134;2022-11-02T08:13:31;12.20;;;3.50;;
70780;SDS011;59514;48.810;2.134;2022-11-02T08:15:57;18.58;;;4.20;;
70780;SDS011;59514;48.810;2.134;2022-11-02T08:18:23;17.45;;;4.38;;
70780;SDS011;59514;48.810;2.134;2022-11-02T08:20:50;15.82;;;4.45;;
70780;SDS011;59514;48.810;2.134;2022-11-02T08:23:16;12.95;;;3.85;;
70780;SDS011;59514;48.810;2.134;2022-11-02T08:25:43;19.45;;;4.30;;
70780;SDS011;59514;48.810;2.134;2022-11-02T08:28:11;15.90;;;5.18;;
70780;SDS011;59514;48.810;2.134;2022-11-02T08:30:38;13.52;;;3.80;;
70780;SDS011;59514;48.810;2.134;2022-11-02T08:33:07;14.43;;;4.57;;
70780;SDS011;59514;48.810;2.134;2022-11-02T08:35:37;13.68;;;3.97;;
70780;SDS011;59514;48.810;2.134;2022-11-02T08:38:03;22.60;;;5.28;;
70780;SDS011;59514;48.810;2.134;2022-11-02T08:40:30;13.88;;;4.63;;
70780;SDS011;59514;48.810;2.134;2022-11-02T08:43:00;16.98;;;4.47;;
70780;SDS011;59514;48.810;2.134;2022-11-02T08:45:27;11.35;;;3.55;;
70780;SDS011;59514;48.810;2.134;2022-11-02T08:47:53;14.60;;;4.47;;
70780;SDS011;59514;48.810;2.134;2022-11-02T08:50:19;20.15;;;4.25;;
70780;SDS011;59514;48.810;2.134;2022-11-02T08:52:44;13.63;;;4.05;;
70780;SDS011;59514;48.810;2.134;2022-11-02T08:55:10;15.93;;;4.07;;
70780;SDS011;59514;48.810;2.134;2022-11-02T09:00:10;15.65;;;4.00;;
70780;SDS011;59514;48.810;2.134;2022-11-02T09:02:36;17.95;;;4.20;;
70780;SDS011;59514;48.810;2.134;2022-11-02T09:05:01;16.17;;;3.63;;
70780;SDS011;59514;48.810;2.134;2022-11-02T09:07:27;15.40;;;4.22;;
70780;SDS011;59514;48.810;2.134;2022-11-02T09:09:52;15.43;;;3.88;;
70780;SDS011;59514;48.810;2.134;2022-11-02T09:12:17;13.13;;;3.55;;
70780;SDS011;59514;48.810;2.134;2022-11-02T09:14:42;9.88;;;3.70;;
70780;SDS011;59514;48.810;2.134;2022-11-02T09:17:08;14.88;;;3.95;;
70780;SDS011;59514;48.810;2.134;2022-11-02T09:19:33;14.65;;;3.85;;
70780;SDS011;59514;48.810;2.134;2022-11-02T09:21:58;11.15;;;3.58;;
70780;SDS011;59514;48.810;2.134;2022-11-02T09:24:24;12.30;;;3.80;;
70780;SDS011;59514;48.810;2.134;2022-11-02T09:26:51;11.70;;;3.55;;
70780;SDS011;59514;48.810;2.134;2022-11-02T09:29:16;12.50;;;4.00;;
70780;SDS011;59514;48.810;2.134;2022-11-02T09:31:42;16.83;;;4.65;;
70780;SDS011;59514;48.810;2.134;2022-11-02T09:34:07;12.73;;;3.67;;
70780;SDS011;59514;48.810;2.134;2022-11-02T09:36:33;12.85;;;4.05;;
70780;SDS011;59514;48.810;2.134;2022-11-02T09:38:58;10.98;;;3.42;;
70780;SDS011;59514;48.810;2.134;2022-11-02T09:41:35;13.88;;;3.88;;
70780;SDS011;59514;48.810;2.134;2022-11-02T09:44:12;15.70;;;3.72;;
70780;SDS011;59514;48.810;2.134;2022-11-02T09:46:43;11.40;;;3.58;;
70780;SDS011;59514;48.810;2.134;2022-11-02T09:49:20;15.25;;;4.35;;
70780;SDS011;59514;48.810;2.134;2022-11-02T09:51:49;16.15;;;4.30;;
70780;SDS011;59514;48.810;2.134;2022-11-02T09:56:48;13.77;;;4.20;;
70780;SDS011;59514;48.810;2.134;2022-11-02T09:59:21;13.38;;;3.72;;
70780;SDS011;59514;48.810;2.134;2022-11-02T10:02:10;14.70;;;3.63;;
70780;SDS011;59514;48.810;2.134;2022-11-02T10:07:59;14.63;;;3.88;;
70780;SDS011;59514;48.810;2.134;2022-11-02T10:15:41;11.05;;;3.58;;
70780;SDS011;59514;48.810;2.134;2022-11-02T10:18:11;11.65;;;3.63;;
70780;SDS011;59514;48.810;2.134;2022-11-02T10:20:45;12.52;;;3.60;;
70780;SDS011;59514;48.810;2.134;2022-11-02T10:23:24;9.20;;;3.22;;
70780;SDS011;59514;48.810;2.134;2022-11-02T10:25:58;16.25;;;3.65;;
70780;SDS011;59514;48.810;2.134;2022-11-02T10:28:27;13.95;;;3.55;;
70780;SDS011;59514;48.810;2.134;2022-11-02T10:30:57;11.57;;;3.30;;
70780;SDS011;59514;48.810;2.134;2022-11-02T10:33:26;14.32;;;3.50;;
70780;SDS011;59514;48.810;2.134;2022-11-02T10:41:31;10.00;;;3.97;;
70780;SDS011;59514;48.810;2.134;2022-11-02T10:46:55;10.98;;;3.67;;
70780;SDS011;59514;48.810;2.134;2022-11-02T10:49:38;10.27;;;3.95;;
70780;SDS011;59514;48.810;2.134;2022-11-02T10:52:10;13.10;;;3.45;;
70780;SDS011;59514;48.810;2.134;2022-11-02T10:54:39;11.55;;;3.78;;
70780;SDS011;59514;48.810;2.134;2022-11-02T10:57:11;13.13;;;4.30;;
70780;SDS011;59514;48.810;2.134;2022-11-02T10:59:38;11.80;;;3.70;;
70780;SDS011;59514;48.810;2.134;2022-11-02T11:02:08;12.00;;;3.30;;
70780;SDS011;59514;48.810;2.134;2022-11-02T11:04:39;9.15;;;3.40;;
70780;SDS011;59514;48.810;2.134;2022-11-02T11:07:06;12.38;;;3.47;;
70780;SDS011;59514;48.810;2.134;2022-11-02T11:12:23;11.23;;;2.80;;
70780;SDS011;59514;48.810;2.134;2022-11-02T11:14:55;13.15;;;3.80;;
70780;SDS011;59514;48.810;2.134;2022-11-02T11:17:26;15.20;;;3.50;;
70780;SDS011;59514;48.810;2.134;2022-11-02T11:19:55;11.90;;;3.05;;
70780;SDS011;59514;48.810;2.134;2022-11-02T11:22:26;11.70;;;3.33;;
70780;SDS011;59514;48.810;2.134;2022-11-02T11:27:50;11.85;;;3.22;;
70780;SDS011;59514;48.810;2.134;2022-11-02T11:30:27;13.52;;;3.58;;
70780;SDS011;59514;48.810;2.134;2022-11-02T11:32:53;12.80;;;3.58;;
70780;SDS011;59514;48.810;2.134;2022-11-02T11:35:20;8.77;;;3.05;;
70780;SDS011;59514;48.810;2.134;2022-11-02T11:37:50;12.63;;;3.53;;
70780;SDS011;59514;48.810;2.134;2022-11-02T11:40:19;11.93;;;3.40;;
70780;SDS011;59514;48.810;2.134;2022-11-02T11:42:49;16.88;;;4.60;;
70780;SDS011;59514;48.810;2.134;2022-11-02T11:47:52;17.38;;;4.85;;
70780;SDS011;59514;48.810;2.134;2022-11-02T11:50:26;15.90;;;4.18;;
70780;SDS011;59514;48.810;2.134;2022-11-02T11:53:37;15.98;;;4.43;;
70780;SDS011;59514;48.810;2.134;2022-11-02T11:55:45;17.15;;;4.20;;
70780;SDS011;59514;48.810;2.134;2022-11-02T11:58:20;13.15;;;3.80;;
70780;SDS011;59514;48.810;2.134;2022-11-02T12:23:07;13.65;;;4.30;;
70780;SDS011;59514;48.810;2.134;2022-11-02T12:28:30;16.35;;;4.45;;
70780;SDS011;59514;48.810;2.134;2022-11-02T12:37:06;18.75;;;4.45;;
70780;SDS011;59514;48.810;2.134;2022-11-02T12:42:26;17.50;;;4.22;;
70780;SDS011;59514;48.810;2.134;2022-11-02T12:47:59;14.88;;;3.75;;
70780;SDS011;59514;48.810;2.134;2022-11-02T12:50:29;13.57;;;3.80;;
70780;SDS011;59514;48.810;2.134;2022-11-02T12:53:20;11.52;;;3.58;;
70780;SDS011;59514;48.810;2.134;2022-11-02T12:55:54;14.18;;;3.80;;
70780;SDS011;59514;48.810;2.134;2022-11-02T12:58:24;16.20;;;3.60;;
70780;SDS011;59514;48.810;2.134;2022-11-02T13:00:56;12.73;;;3.63;;
70780;SDS011;59514;48.810;2.134;2022-11-02T13:03:51;11.75;;;2.92;;
70780;SDS011;59514;48.810;2.134;2022-11-02T13:06:28;11.13;;;3.50;;
70780;SDS011;59514;48.810;2.134;2022-11-02T13:09:06;15.93;;;3.20;;
70780;SDS011;59514;48.810;2.134;2022-11-02T13:11:37;13.43;;;3.78;;
70780;SDS011;59514;48.810;2.134;2022-11-02T13:14:10;14.80;;;3.72;;
70780;SDS011;59514;48.810;2.134;2022-11-02T13:16:49;14.15;;;3.22;;
70780;SDS011;59514;48.810;2.134;2022-11-02T13:19:21;10.95;;;3.45;;
70780;SDS011;59514;48.810;2.134;2022-11-02T13:21:53;12.85;;;3.13;;
70780;SDS011;59514;48.810;2.134;2022-11-02T13:24:21;14.05;;;3.40;;
70780;SDS011;59514;48.810;2.134;2022-11-02T13:26:51;14.73;;;3.25;;
70780;SDS011;59514;48.810;2.134;2022-11-02T13:34:44;14.33;;;3.47;;
70780;SDS011;59514;48.810;2.134;2022-11-02T13:37:21;13.35;;;3.28;;
70780;SDS011;59514;48.810;2.134;2022-11-02T13:39:50;11.63;;;3.22;;
70780;SDS011;59514;48.810;2.134;2022-11-02T13:50:22;12.90;;;3.47;;
70780;SDS011;59514;48.810;2.134;2022-11-02T13:52:51;12.60;;;3.17;;
70780;SDS011;59514;48.810;2.134;2022-11-02T13:55:22;14.00;;;4.05;;
70780;SDS011;59514;48.810;2.134;2022-11-02T13:57:52;8.80;;;3.28;;
70780;SDS011;59514;48.810;2.134;2022-11-02T14:02:47;11.83;;;3.30;;
70780;SDS011;59514;48.810;2.134;2022-11-02T14:05:30;12.70;;;3.30;;
70780;SDS011;59514;48.810;2.134;2022-11-02T14:08:02;13.50;;;3.20;;
70780;SDS011;59514;48.810;2.134;2022-11-02T14:10:32;12.15;;;3.05;;
70780;SDS011;59514;48.810;2.134;2022-11-02T14:13:02;12.20;;;3.22;;
70780;SDS011;59514;48.810;2.134;2022-11-02T14:18:14;14.23;;;2.95;;
70780;SDS011;59514;48.810;2.134;2022-11-02T14:20:52;11.18;;;3.15;;
70780;SDS011;59514;48.810;2.134;2022-11-02T14:23:34;11.07;;;4.50;;
70780;SDS011;59514;48.810;2.134;2022-11-02T14:26:00;11.57;;;3.42;;
70780;SDS011;59514;48.810;2.134;2022-11-02T14:28:28;14.07;;;3.15;;
70780;SDS011;59514;48.810;2.134;2022-11-02T14:36:36;14.05;;;3.05;;
70780;SDS011;59514;48.810;2.134;2022-11-02T14:44:47;13.00;;;3.45;;
70780;SDS011;59514;48.810;2.134;2022-11-02T14:47:19;9.95;;;2.85;;
70780;SDS011;59514;48.810;2.134;2022-11-02T14:49:51;7.55;;;2.88;;
70780;SDS011;59514;48.810;2.134;2022-11-02T14:52:25;8.68;;;2.78;;
70780;SDS011;59514;48.810;2.134;2022-11-02T14:55:00;9.82;;;2.78;;
70780;SDS011;59514;48.810;2.134;2022-11-02T14:57:35;12.13;;;3.08;;
70780;SDS011;59514;48.810;2.134;2022-11-02T15:00:20;11.63;;;2.88;;
70780;SDS011;59514;48.810;2.134;2022-11-02T15:02:46;10.40;;;2.97;;
70780;SDS011;59514;48.810;2.134;2022-11-02T15:05:26;8.40;;;2.53;;
70780;SDS011;59514;48.810;2.134;2022-11-02T15:08:03;9.40;;;2.63;;
70780;SDS011;59514;48.810;2.134;2022-11-02T15:15:45;9.82;;;2.65;;
70780;SDS011;59514;48.810;2.134;2022-11-02T15:18:36;12.00;;;3.17;;
70780;SDS011;59514;48.810;2.134;2022-11-02T15:26:18;17.92;;;3.42;;
70780;SDS011;59514;48.810;2.134;2022-11-02T15:28:47;12.77;;;3.45;;
70780;SDS011;59514;48.810;2.134;2022-11-02T15:31:18;9.23;;;2.92;;
70780;SDS011;59514;48.810;2.134;2022-11-02T15:33:46;11.45;;;2.90;;
70780;SDS011;59514;48.810;2.134;2022-11-02T15:36:21;13.57;;;2.75;;
70780;SDS011;59514;48.810;2.134;2022-11-02T15:38:53;10.95;;;2.90;;
70780;SDS011;59514;48.810;2.134;2022-11-02T15:46:42;8.73;;;2.90;;
70780;SDS011;59514;48.810;2.134;2022-11-02T15:50:32;12.15;;;3.33;;
70780;SDS011;59514;48.810;2.134;2022-11-02T16:01:19;10.05;;;2.60;;
70780;SDS011;59514;48.810;2.134;2022-11-02T16:03:47;11.02;;;2.90;;
70780;SDS011;59514;48.810;2.134;2022-11-02T16:06:25;12.02;;;3.13;;
70780;SDS011;59514;48.810;2.134;2022-11-02T16:08:56;10.48;;;2.53;;
70780;SDS011;59514;48.810;2.134;2022-11-02T16:11:23;9.85;;;2.30;;
70780;SDS011;59514;48.810;2.134;2022-11-02T16:13:49;14.95;;;3.15;;
70780;SDS011;59514;48.810;2.134;2022-11-02T16:16:17;10.02;;;2.85;;
70780;SDS011;59514;48.810;2.134;2022-11-02T16:18:47;12.80;;;2.75;;
70780;SDS011;59514;48.810;2.134;2022-11-02T16:21:17;8.98;;;2.53;;
70780;SDS011;59514;48.810;2.134;2022-11-02T16:23:45;10.93;;;2.78;;
70780;SDS011;59514;48.810;2.134;2022-11-02T16:26:14;9.48;;;2.70;;
70780;SDS011;59514;48.810;2.134;2022-11-02T16:28:47;10.40;;;2.70;;
70780;SDS011;59514;48.810;2.134;2022-11-02T16:31:15;8.60;;;2.90;;
70780;SDS011;59514;48.810;2.134;2022-11-02T16:33:53;8.40;;;2.45;;
70780;SDS011;59514;48.810;2.134;2022-11-02T16:36:26;10.15;;;3.28;;
70780;SDS011;59514;48.810;2.134;2022-11-02T16:38:59;9.52;;;2.78;;
70780;SDS011;59514;48.810;2.134;2022-11-02T16:41:40;7.20;;;2.47;;
70780;SDS011;59514;48.810;2.134;2022-11-02T16:44:30;8.27;;;2.78;;
70780;SDS011;59514;48.810;2.134;2022-11-02T16:49:33;11.40;;;2.53;;
70780;SDS011;59514;48.810;2.134;2022-11-02T16:52:32;11.27;;;2.80;;
70780;SDS011;59514;48.810;2.134;2022-11-02T16:54:59;13.55;;;2.88;;
70780;SDS011;59514;48.810;2.134;2022-11-02T16:57:28;11.30;;;2.67;;
70780;SDS011;59514;48.810;2.134;2022-11-02T17:05:00;11.13;;;2.97;;
70780;SDS011;59514;48.810;2.134;2022-11-02T17:07:28;9.13;;;2.30;;
70780;SDS011;59514;48.810;2.134;2022-11-02T17:09:57;9.82;;;3.10;;
70780;SDS011;59514;48.810;2.134;2022-11-02T17:12:29;7.00;;;2.20;;
70780;SDS011;59514;48.810;2.134;2022-11-02T17:14:55;9.02;;;2.88;;
70780;SDS011;59514;48.810;2.134;2022-11-02T17:19:53;9.18;;;2.75;;
70780;SDS011;59514;48.810;2.134;2022-11-02T17:24:45;10.23;;;3.00;;
70780;SDS011;59514;48.810;2.134;2022-11-02T17:27:30;10.27;;;3.08;;
70780;SDS011;59514;48.810;2.134;2022-11-02T17:29:57;10.50;;;3.10;;